createdAt,value
2018-07-14T00:02:02.724Z,17.50
2018-07-14T00:04:31.227Z,17.50
2018-07-14T00:06:59.825Z,17.50
2018-07-14T00:09:28.300Z,17.50
2018-07-14T00:11:56.851Z,17.50
2018-07-14T00:14:25.544Z,17.60
2018-07-14T00:16:54.150Z,17.50
2018-07-14T00:19:22.634Z,17.50
2018-07-14T00:21:51.358Z,17.50
2018-07-14T00:24:19.917Z,17.40
2018-07-14T00:26:48.418Z,17.40
2018-07-14T00:29:17.094Z,17.40
2018-07-14T00:31:45.605Z,17.30
2018-07-14T00:34:14.229Z,17.30
2018-07-14T00:36:42.741Z,17.20
2018-07-14T00:39:11.307Z,17.20
2018-07-14T00:41:39.799Z,17.20
2018-07-14T00:44:08.318Z,17.30
2018-07-14T00:46:36.983Z,17.20
2018-07-14T00:49:05.859Z,17.20
2018-07-14T00:54:02.557Z,17.10
2018-07-14T00:56:31.109Z,17.10
2018-07-14T00:58:59.638Z,17.10
2018-07-14T01:01:28.329Z,17.10
2018-07-14T01:03:57.067Z,17.10
2018-07-14T01:06:25.591Z,17.10
2018-07-14T01:08:54.067Z,17.00
2018-07-14T01:11:22.672Z,17.00
2018-07-14T01:13:51.182Z,17.00
2018-07-14T01:16:19.825Z,17.00
2018-07-14T01:18:48.323Z,17.00
2018-07-14T01:21:16.828Z,17.00
2018-07-14T01:23:45.330Z,16.90
2018-07-14T01:26:13.828Z,16.90
2018-07-14T01:28:42.326Z,16.80
2018-07-14T01:31:10.934Z,16.80
2018-07-14T01:33:39.395Z,16.70
2018-07-14T01:36:07.926Z,16.70
2018-07-14T01:38:36.543Z,16.70
2018-07-14T01:41:05.048Z,16.70
2018-07-14T01:43:33.511Z,16.70
2018-07-14T01:46:02.095Z,16.70
2018-07-14T01:48:30.772Z,16.70
2018-07-14T01:50:59.318Z,16.60
2018-07-14T01:53:27.776Z,16.70
2018-07-14T01:55:56.346Z,16.70
2018-07-14T01:58:25.003Z,16.70
2018-07-14T02:00:53.533Z,16.70
2018-07-14T02:03:22.084Z,16.70
2018-07-14T02:05:50.703Z,16.60
2018-07-14T02:08:19.249Z,16.40
2018-07-14T02:10:47.759Z,16.40
2018-07-14T02:13:16.446Z,16.30
2018-07-14T02:15:44.966Z,16.30
2018-07-14T02:18:13.506Z,16.30
2018-07-14T02:20:42.041Z,16.30
2018-07-14T02:23:10.571Z,16.30
2018-07-14T02:25:39.075Z,16.20
2018-07-14T02:28:07.620Z,16.20
2018-07-14T02:30:36.167Z,16.20
2018-07-14T02:33:04.640Z,16.20
2018-07-14T02:35:33.167Z,16.20
2018-07-14T02:38:01.743Z,16.10
2018-07-14T02:40:30.283Z,16.20
2018-07-14T02:42:58.882Z,16.10
2018-07-14T02:45:27.463Z,16.00
2018-07-14T02:47:56.095Z,16.00
2018-07-14T02:50:24.612Z,16.00
2018-07-14T02:52:53.210Z,16.00
2018-07-14T02:55:21.772Z,16.10
2018-07-14T02:57:50.450Z,16.10
2018-07-14T03:00:18.911Z,16.00
2018-07-14T03:02:47.422Z,16.00
2018-07-14T03:05:16.048Z,15.90
2018-07-14T03:07:44.534Z,15.90
2018-07-14T03:10:13.215Z,15.90
2018-07-14T03:12:41.773Z,15.80
2018-07-14T03:15:10.348Z,15.90
2018-07-14T03:17:38.886Z,15.90
2018-07-14T03:20:08.067Z,15.90
2018-07-14T03:22:36.663Z,15.90
2018-07-14T03:25:05.227Z,15.90
2018-07-14T03:27:33.691Z,16.00
2018-07-14T03:30:02.283Z,16.00
2018-07-14T03:32:30.991Z,16.00
2018-07-14T03:34:59.523Z,15.90
2018-07-14T03:37:27.977Z,15.80
2018-07-14T03:39:56.451Z,15.80
2018-07-14T03:42:25.006Z,15.80
2018-07-14T03:44:53.494Z,15.70
2018-07-14T03:47:22.003Z,15.70
2018-07-14T03:49:50.466Z,15.70
2018-07-14T03:52:18.967Z,15.70
2018-07-14T03:54:47.419Z,15.70
2018-07-14T03:59:44.277Z,15.60
2018-07-14T04:02:12.918Z,15.60
2018-07-14T04:04:41.385Z,15.50
2018-07-14T04:07:09.862Z,15.50
2018-07-14T04:09:38.423Z,15.50
2018-07-14T04:12:07.371Z,15.50
2018-07-14T04:14:35.959Z,15.50
2018-07-14T04:17:04.491Z,15.60
2018-07-14T04:19:32.962Z,15.50
2018-07-14T04:22:01.439Z,15.50
2018-07-14T04:24:30.131Z,15.60
2018-07-14T04:26:58.739Z,15.70
2018-07-14T04:29:27.243Z,15.60
2018-07-14T04:31:55.820Z,15.70
2018-07-14T04:34:24.336Z,15.70
2018-07-14T04:36:53.075Z,15.80
2018-07-14T04:39:21.579Z,15.80
2018-07-14T04:41:50.168Z,15.80
2018-07-14T04:44:18.890Z,15.80
2018-07-14T04:46:47.656Z,15.80
2018-07-14T04:49:16.202Z,15.90
2018-07-14T04:51:44.671Z,15.90
2018-07-14T04:54:13.238Z,15.90
2018-07-14T04:56:41.731Z,16.00
2018-07-14T04:59:10.429Z,16.00
2018-07-14T05:01:38.990Z,16.00
2018-07-14T05:04:07.643Z,15.90
2018-07-14T05:06:36.096Z,15.90
2018-07-14T05:09:05.611Z,16.00
2018-07-14T05:11:34.270Z,15.90
2018-07-14T05:14:02.810Z,15.90
2018-07-14T05:16:31.329Z,15.90
2018-07-14T05:18:59.868Z,15.90
2018-07-14T05:21:28.584Z,16.00
2018-07-14T05:23:57.091Z,16.10
2018-07-14T05:26:25.564Z,16.10
2018-07-14T05:28:54.219Z,16.10
2018-07-14T05:31:22.742Z,16.20
2018-07-14T05:33:51.315Z,16.20
2018-07-14T05:36:19.855Z,16.20
2018-07-14T05:38:48.320Z,16.20
2018-07-14T05:41:16.785Z,16.20
2018-07-14T05:43:45.458Z,16.20
2018-07-14T05:46:14.026Z,16.20
2018-07-14T05:48:42.794Z,16.20
2018-07-14T05:51:11.434Z,16.20
2018-07-14T05:53:40.259Z,16.30
2018-07-14T05:56:08.802Z,16.40
2018-07-14T05:58:37.432Z,16.40
2018-07-14T06:01:06.023Z,16.50
2018-07-14T06:03:34.719Z,16.40
2018-07-14T06:06:03.553Z,16.40
2018-07-14T06:08:32.070Z,16.50
2018-07-14T06:11:00.611Z,16.40
2018-07-14T06:13:29.108Z,16.50
2018-07-14T06:15:57.745Z,16.40
2018-07-14T06:18:26.213Z,16.60
2018-07-14T06:20:54.899Z,16.60
2018-07-14T06:23:23.411Z,16.70
2018-07-14T06:25:51.916Z,16.80
2018-07-14T06:28:20.563Z,16.80
2018-07-14T06:30:49.107Z,16.80
2018-07-14T06:33:17.792Z,16.80
2018-07-14T06:35:46.298Z,16.90
2018-07-14T06:38:14.931Z,16.90
2018-07-14T06:40:43.391Z,17.00
2018-07-14T06:43:12.088Z,17.10
2018-07-14T06:45:40.614Z,17.20
2018-07-14T06:48:09.121Z,17.20
2018-07-14T06:50:37.603Z,17.20
2018-07-14T06:53:06.130Z,17.20
2018-07-14T06:55:34.735Z,17.30
2018-07-14T06:58:03.273Z,17.40
2018-07-14T07:00:31.849Z,17.50
2018-07-14T07:03:00.539Z,17.60
2018-07-14T07:05:29.101Z,17.60
2018-07-14T07:07:57.759Z,17.70
2018-07-14T07:10:26.340Z,17.80
2018-07-14T07:12:54.839Z,17.90
2018-07-14T07:15:23.417Z,18.00
2018-07-14T07:17:51.923Z,18.00
2018-07-14T07:20:20.431Z,18.10
2018-07-14T07:22:49.509Z,18.10
2018-07-14T07:25:18.231Z,18.10
2018-07-14T07:27:46.690Z,18.10
2018-07-14T07:30:15.406Z,18.10
2018-07-14T07:32:43.926Z,18.20
2018-07-14T07:35:12.565Z,18.30
2018-07-14T07:37:41.392Z,18.30
2018-07-14T07:40:10.014Z,18.40
2018-07-14T07:42:38.522Z,18.40
2018-07-14T07:45:07.179Z,18.50
2018-07-14T07:47:35.664Z,18.60
2018-07-14T07:50:04.250Z,18.60
2018-07-14T07:52:32.821Z,18.70
2018-07-14T07:55:01.350Z,18.80
2018-07-14T07:57:29.963Z,18.80
2018-07-14T07:59:58.470Z,18.90
2018-07-14T08:02:27.170Z,18.90
2018-07-14T08:04:55.699Z,19.00
2018-07-14T08:07:24.308Z,19.00
2018-07-14T08:09:52.822Z,19.00
2018-07-14T08:12:21.336Z,19.00
2018-07-14T08:14:49.902Z,19.10
2018-07-14T08:17:18.421Z,19.10
2018-07-14T08:19:46.998Z,19.20
2018-07-14T08:22:15.644Z,19.20
2018-07-14T08:24:44.215Z,19.30
2018-07-14T08:27:12.736Z,19.30
2018-07-14T08:29:41.319Z,19.40
2018-07-14T08:32:09.891Z,19.40
2018-07-14T08:34:38.661Z,19.40
2018-07-14T08:37:07.679Z,19.50
2018-07-14T08:39:36.565Z,19.60
2018-07-14T08:42:05.091Z,19.70
2018-07-14T08:44:33.749Z,19.80
2018-07-14T08:47:02.366Z,19.80
2018-07-14T08:49:30.914Z,19.90
2018-07-14T08:51:59.422Z,20.00
2018-07-14T08:54:28.303Z,20.10
2018-07-14T08:56:56.934Z,20.20
2018-07-14T08:59:25.476Z,20.30
2018-07-14T09:01:54.105Z,20.40
2018-07-14T09:04:22.586Z,20.40
2018-07-14T09:06:51.334Z,20.50
2018-07-14T09:09:20.346Z,20.50
2018-07-14T09:11:48.920Z,20.60
2018-07-14T09:14:17.495Z,20.60
2018-07-14T09:16:46.147Z,20.60
2018-07-14T09:19:14.843Z,20.70
2018-07-14T09:21:43.347Z,20.70
2018-07-14T09:24:11.824Z,20.80
2018-07-14T09:26:40.328Z,20.80
2018-07-14T09:29:09.111Z,20.90
2018-07-14T09:31:38.045Z,21.00
2018-07-14T09:34:06.665Z,21.10
2018-07-14T09:36:35.537Z,21.10
2018-07-14T09:39:05.695Z,21.10
2018-07-14T09:41:34.171Z,21.20
2018-07-14T09:44:02.952Z,21.10
2018-07-14T09:46:31.851Z,21.30
2018-07-14T09:51:28.603Z,21.30
2018-07-14T09:53:57.110Z,21.50
2018-07-14T09:56:25.780Z,21.40
2018-07-14T09:58:54.358Z,21.50
2018-07-14T10:01:22.884Z,21.50
2018-07-14T10:03:51.380Z,21.60
2018-07-14T10:06:20.115Z,21.60
2018-07-14T10:08:48.864Z,21.60
2018-07-14T10:11:17.473Z,21.60
2018-07-14T10:13:46.040Z,21.70
2018-07-14T10:16:14.614Z,21.70
2018-07-14T10:18:43.176Z,21.60
2018-07-14T10:21:11.730Z,21.60
2018-07-14T10:26:08.483Z,21.80
2018-07-14T10:28:37.046Z,21.80
2018-07-14T10:31:05.676Z,21.90
2018-07-14T10:33:34.358Z,21.90
2018-07-14T10:36:02.813Z,21.90
2018-07-14T10:38:31.437Z,22.00
2018-07-14T10:41:00.224Z,22.10
2018-07-14T10:43:28.891Z,22.20
2018-07-14T10:45:57.685Z,22.10
2018-07-14T10:48:26.254Z,22.00
2018-07-14T10:50:54.883Z,22.00
2018-07-14T10:53:23.468Z,22.10
2018-07-14T10:55:52.003Z,22.30
2018-07-14T10:58:20.550Z,22.40
2018-07-14T11:00:49.107Z,22.40
2018-07-14T11:03:17.763Z,22.40
2018-07-14T11:05:46.287Z,22.40
2018-07-14T11:08:14.868Z,22.40
2018-07-14T11:10:43.465Z,22.40
2018-07-14T11:13:12.031Z,22.30
2018-07-14T11:15:40.596Z,22.30
2018-07-14T11:18:09.209Z,22.00
2018-07-14T11:20:37.694Z,22.10
2018-07-14T11:23:06.426Z,22.30
2018-07-14T11:25:34.896Z,22.10
2018-07-14T11:28:03.548Z,22.20
2018-07-14T11:30:32.247Z,22.40
2018-07-14T11:33:00.748Z,22.40
2018-07-14T11:35:29.859Z,22.30
2018-07-14T11:37:58.453Z,22.50
2018-07-14T11:40:27.250Z,22.60
2018-07-14T11:42:55.850Z,22.40
2018-07-14T11:45:24.632Z,22.50
2018-07-14T11:47:53.238Z,22.70
2018-07-14T11:50:22.173Z,22.80
2018-07-14T11:52:50.967Z,22.90
2018-07-14T11:55:19.632Z,22.80
2018-07-14T11:57:48.156Z,22.90
2018-07-14T12:00:16.962Z,22.90
2018-07-14T12:02:45.699Z,22.90
2018-07-14T12:05:14.247Z,22.70
2018-07-14T12:07:42.794Z,22.80
2018-07-14T12:10:11.396Z,22.90
2018-07-14T12:12:39.898Z,22.90
2018-07-14T12:15:08.631Z,22.90
2018-07-14T12:17:37.312Z,22.80
2018-07-14T12:20:06.253Z,22.60
2018-07-14T12:25:03.229Z,22.80
2018-07-14T12:27:31.819Z,23.00
2018-07-14T12:30:00.521Z,23.00
2018-07-14T12:32:28.991Z,23.00
2018-07-14T12:34:57.587Z,22.90
2018-07-14T12:37:26.231Z,23.00
2018-07-14T12:39:54.844Z,23.00
2018-07-14T12:42:23.368Z,23.00
2018-07-14T12:44:51.939Z,23.00
2018-07-14T12:47:20.815Z,23.10
2018-07-14T12:49:49.668Z,23.20
2018-07-14T12:54:46.518Z,23.10
2018-07-14T12:57:17.182Z,23.30
2018-07-14T12:59:46.229Z,23.30
2018-07-14T13:02:14.772Z,23.10
2018-07-14T13:04:43.782Z,23.10
2018-07-14T13:07:12.716Z,23.00
2018-07-14T13:09:41.230Z,23.00
2018-07-14T13:12:09.818Z,23.00
2018-07-14T13:14:38.415Z,23.00
2018-07-14T13:17:07.031Z,22.90
2018-07-14T13:19:35.490Z,22.70
2018-07-14T13:22:04.131Z,22.70
2018-07-14T13:24:32.747Z,22.90
2018-07-14T13:27:01.419Z,23.00
2018-07-14T13:29:29.914Z,23.00
2018-07-14T13:31:58.430Z,22.80
2018-07-14T13:34:26.978Z,22.80
2018-07-14T13:36:55.580Z,22.90
2018-07-14T13:39:24.091Z,23.00
2018-07-14T13:41:52.667Z,22.80
2018-07-14T13:44:21.293Z,22.80
2018-07-14T13:46:49.836Z,22.90
2018-07-14T13:49:18.413Z,22.90
2018-07-14T13:51:46.935Z,23.00
2018-07-14T13:54:15.460Z,22.80
2018-07-14T13:56:44.193Z,22.80
2018-07-14T13:59:13.308Z,22.60
2018-07-14T14:01:41.942Z,22.60
2018-07-14T14:04:10.603Z,22.60
2018-07-14T14:06:39.329Z,22.60
2018-07-14T14:09:08.107Z,22.50
2018-07-14T14:11:37.082Z,22.30
2018-07-14T14:14:06.267Z,22.30
2018-07-14T14:16:34.782Z,22.30
2018-07-14T14:19:03.940Z,22.50
2018-07-14T14:21:32.525Z,22.40
2018-07-14T14:24:01.041Z,22.50
2018-07-14T14:26:29.930Z,22.60
2018-07-14T14:28:58.423Z,22.60
2018-07-14T14:31:26.975Z,22.60
2018-07-14T14:33:55.512Z,22.60
2018-07-14T14:36:24.032Z,22.50
2018-07-14T14:38:52.536Z,22.50
2018-07-14T14:41:21.059Z,22.50
2018-07-14T14:43:49.798Z,22.50
2018-07-14T14:46:18.314Z,22.40
2018-07-14T14:48:46.919Z,22.40
2018-07-14T14:51:15.483Z,22.30
2018-07-14T14:53:44.023Z,22.50
2018-07-14T14:56:12.688Z,22.50
2018-07-14T14:58:41.174Z,22.60
2018-07-14T15:01:09.843Z,22.60
2018-07-14T15:03:38.444Z,22.60
2018-07-14T15:06:07.316Z,22.60
2018-07-14T15:08:36.108Z,22.60
2018-07-14T15:11:04.662Z,22.70
2018-07-14T15:13:33.439Z,22.70
2018-07-14T15:16:02.103Z,22.60
2018-07-14T15:18:30.682Z,22.40
2018-07-14T15:20:59.204Z,22.50
2018-07-14T15:23:27.799Z,22.60
2018-07-14T15:25:56.635Z,22.60
2018-07-14T15:28:25.203Z,22.60
2018-07-14T15:30:54.086Z,22.50
2018-07-14T15:33:22.896Z,22.50
2018-07-14T15:35:51.633Z,22.50
2018-07-14T15:38:20.203Z,22.40
2018-07-14T15:40:48.803Z,22.30
2018-07-14T15:43:17.323Z,22.30
2018-07-14T15:45:46.138Z,22.30
2018-07-14T15:48:14.624Z,22.30
2018-07-14T15:50:43.490Z,22.30
2018-07-14T15:53:11.977Z,22.30
2018-07-14T15:55:40.507Z,22.30
2018-07-14T15:58:09.162Z,22.30
2018-07-14T16:00:37.969Z,22.20
2018-07-14T16:03:06.703Z,22.10
2018-07-14T16:05:35.366Z,22.00
2018-07-14T16:10:32.284Z,22.00
2018-07-14T16:13:01.015Z,22.10
2018-07-14T16:15:29.697Z,22.20
2018-07-14T16:17:58.219Z,22.20
2018-07-14T16:20:26.829Z,22.30
2018-07-14T16:22:55.340Z,22.30
2018-07-14T16:25:23.958Z,22.10
2018-07-14T16:27:52.543Z,22.00
2018-07-14T16:30:21.232Z,22.00
2018-07-14T16:32:49.830Z,22.00
2018-07-14T16:35:18.413Z,22.10
2018-07-14T16:37:47.244Z,21.90
2018-07-14T16:40:16.009Z,21.80
2018-07-14T16:42:44.564Z,21.80
2018-07-14T16:45:13.392Z,22.00
2018-07-14T16:47:41.952Z,22.10
2018-07-14T16:50:10.684Z,22.10
2018-07-14T16:52:39.132Z,22.10
2018-07-14T16:55:07.851Z,22.20
2018-07-14T16:57:36.649Z,22.20
2018-07-14T17:00:05.662Z,22.30
2018-07-14T17:02:34.633Z,22.20
2018-07-14T17:05:03.399Z,22.30
2018-07-14T17:07:32.085Z,22.30
2018-07-14T17:10:00.704Z,22.30
2018-07-14T17:12:29.300Z,22.30
2018-07-14T17:14:57.826Z,22.30
2018-07-14T17:19:54.722Z,22.30
2018-07-14T17:22:23.239Z,22.30
2018-07-14T17:24:51.714Z,22.30
2018-07-14T17:27:20.275Z,22.30
2018-07-14T17:29:48.795Z,22.40
2018-07-14T17:32:17.411Z,22.30
2018-07-14T17:34:46.007Z,22.30
2018-07-14T17:37:14.564Z,22.30
2018-07-14T17:39:43.158Z,22.30
2018-07-14T17:42:11.747Z,22.30
2018-07-14T17:44:40.319Z,22.20
2018-07-14T17:47:09.058Z,22.10
2018-07-14T17:49:37.727Z,22.10
2018-07-14T17:52:06.497Z,22.10
2018-07-14T17:54:35.134Z,22.10
2018-07-14T17:57:03.931Z,22.20
2018-07-14T17:59:32.443Z,22.20
2018-07-14T18:02:01.003Z,22.20
2018-07-14T18:04:29.568Z,22.20
2018-07-14T18:09:26.416Z,22.10
2018-07-14T18:11:55.052Z,22.00
2018-07-14T18:14:23.633Z,21.90
2018-07-14T18:16:52.395Z,21.90
2018-07-14T18:19:20.984Z,21.90
2018-07-14T18:21:49.528Z,21.80
2018-07-14T18:24:18.401Z,21.80
2018-07-14T18:26:47.080Z,21.70
2018-07-14T18:29:15.603Z,21.70
2018-07-14T18:31:44.145Z,21.70
2018-07-14T18:34:12.795Z,21.70
2018-07-14T18:36:41.340Z,21.60
2018-07-14T18:39:10.158Z,21.60
2018-07-14T18:41:38.679Z,21.50
2018-07-14T18:44:07.419Z,21.50
2018-07-14T18:46:36.100Z,21.50
2018-07-14T18:49:04.760Z,21.40
2018-07-14T18:51:33.407Z,21.30
2018-07-14T18:54:02.032Z,21.30
2018-07-14T18:56:30.684Z,21.20
2018-07-14T18:58:59.270Z,21.10
2018-07-14T19:01:27.986Z,21.00
2018-07-14T19:03:56.654Z,21.00
2018-07-14T19:06:25.272Z,20.90
2018-07-14T19:08:53.984Z,20.90
2018-07-14T19:11:22.418Z,20.80
2018-07-14T19:13:51.080Z,20.80
2018-07-14T19:16:19.668Z,20.80
2018-07-14T19:18:48.579Z,20.70
2018-07-14T19:21:17.146Z,20.70
2018-07-14T19:23:46.271Z,20.70
2018-07-14T19:26:14.850Z,20.60
2018-07-14T19:28:43.335Z,20.60
2018-07-14T19:31:11.949Z,20.60
2018-07-14T19:33:40.564Z,20.60
2018-07-14T19:36:09.108Z,20.50
2018-07-14T19:38:37.716Z,20.50
2018-07-14T19:41:06.231Z,20.40
2018-07-14T19:43:34.895Z,20.40
2018-07-14T19:46:03.526Z,20.30
2018-07-14T19:48:32.087Z,20.30
2018-07-14T19:51:00.702Z,20.30
2018-07-14T19:53:29.199Z,20.20
2018-07-14T19:55:57.952Z,20.20
2018-07-14T19:58:26.582Z,20.20
2018-07-14T20:00:55.163Z,20.10
2018-07-14T20:03:23.674Z,20.10
2018-07-14T20:05:52.340Z,20.10
2018-07-14T20:08:20.875Z,20.10
2018-07-14T20:13:17.694Z,20.00
2018-07-14T20:15:46.353Z,20.00
2018-07-14T20:18:14.820Z,19.90
2018-07-14T20:20:43.489Z,19.90
2018-07-14T20:23:12.020Z,19.80
2018-07-14T20:25:40.704Z,19.80
2018-07-14T20:28:09.337Z,19.70
2018-07-14T20:33:06.300Z,19.60
2018-07-14T20:35:34.980Z,19.60
2018-07-14T20:38:03.743Z,19.60
2018-07-14T20:40:32.387Z,19.50
2018-07-14T20:43:00.884Z,19.50
2018-07-14T20:45:29.455Z,19.50
2018-07-14T20:47:58.057Z,19.40
2018-07-14T20:50:26.724Z,19.40
2018-07-14T20:52:55.255Z,19.40
2018-07-14T20:55:23.829Z,19.30
2018-07-14T20:57:52.351Z,19.30
2018-07-14T21:00:21.120Z,19.30
2018-07-14T21:02:49.659Z,19.30
2018-07-14T21:05:18.568Z,19.20
2018-07-14T21:07:47.194Z,19.10
2018-07-14T21:10:16.147Z,19.10
2018-07-14T21:12:44.776Z,19.00
2018-07-14T21:15:13.247Z,19.00
2018-07-14T21:17:41.772Z,19.00
2018-07-14T21:20:10.296Z,19.00
2018-07-14T21:22:38.838Z,19.00
2018-07-14T21:25:07.856Z,19.00
2018-07-14T21:27:36.615Z,19.10
2018-07-14T21:30:05.191Z,19.10
2018-07-14T21:32:33.808Z,19.10
2018-07-14T21:35:02.316Z,19.00
2018-07-14T21:37:30.986Z,19.00
2018-07-14T21:39:59.509Z,19.00
2018-07-14T21:42:28.092Z,19.00
2018-07-14T21:44:56.688Z,19.00
2018-07-14T21:47:25.330Z,18.90
2018-07-14T21:49:53.988Z,18.90
2018-07-14T21:52:23.322Z,18.80
2018-07-14T21:54:51.828Z,18.80
2018-07-14T21:57:20.371Z,18.70
2018-07-14T21:59:48.926Z,18.70
2018-07-14T22:02:17.687Z,18.60
2018-07-14T22:04:46.207Z,18.60
2018-07-14T22:07:14.730Z,18.60
2018-07-14T22:09:43.254Z,18.50
2018-07-14T22:14:40.099Z,18.50
2018-07-14T22:17:08.686Z,18.40
2018-07-14T22:19:37.240Z,18.30
2018-07-14T22:22:06.010Z,18.30
2018-07-14T22:24:34.686Z,18.20
2018-07-14T22:27:03.173Z,18.20
2018-07-14T22:29:31.862Z,18.20
2018-07-14T22:32:00.479Z,18.20
2018-07-14T22:34:28.957Z,18.10
2018-07-14T22:36:57.529Z,18.10
2018-07-14T22:39:26.015Z,18.00
2018-07-14T22:41:54.686Z,18.00
2018-07-14T22:44:23.199Z,18.00
2018-07-14T22:46:51.759Z,17.90
2018-07-14T22:49:20.250Z,17.90
2018-07-14T22:51:49.051Z,17.80
2018-07-14T22:54:17.733Z,17.80
2018-07-14T22:56:46.226Z,17.80
2018-07-14T22:59:14.907Z,17.80
2018-07-14T23:01:43.515Z,17.70
2018-07-14T23:04:12.030Z,17.60
2018-07-14T23:06:40.715Z,17.60
2018-07-14T23:09:09.227Z,17.50
2018-07-14T23:11:37.751Z,17.50
2018-07-14T23:14:06.383Z,17.40
2018-07-14T23:16:34.891Z,17.40
2018-07-14T23:21:31.722Z,17.30
2018-07-14T23:24:00.227Z,17.30
2018-07-14T23:26:28.945Z,17.20
2018-07-14T23:28:57.441Z,17.20
2018-07-14T23:31:25.953Z,17.20
2018-07-14T23:33:54.528Z,17.20
2018-07-14T23:36:23.119Z,17.10
2018-07-14T23:38:51.695Z,17.10
2018-07-14T23:41:20.388Z,17.10
2018-07-14T23:43:49.146Z,17.10
2018-07-14T23:46:17.863Z,17.10
2018-07-14T23:48:46.536Z,17.00
2018-07-14T23:51:15.078Z,17.00
2018-07-14T23:53:43.798Z,17.00
2018-07-14T23:56:12.315Z,17.00
2018-07-14T23:58:40.822Z,17.00
